Manzanillo, Cuba
Current Conditions -  °F | °C
As of 8:50 PM on Friday 24 Oct 2014 (Local Time) from MUHG Reporting Station
Broken Clouds Broken Clouds  
Wind Chill: 77°   Ceiling: 10000
Heat Index: 79°   Visibility: 6mi
Dew Point: 70°   Wind: 3mph
Humidity: 78%   Direction: 100°E
Pressure: 29.83"   Gusts: NA
Location:  20.35°N, 77.12°W
Report Text: MUHG 250050Z 10003KT 9999 FEW020 BKN100 25/21 Q1010
Loading
Personal Weather Stations






























Interactive Weather Map
Tropical Storm Tracking
New forecast layout! Learn more

10-Day Weather Forecast

Advertisements
Track Severe Weather on mobile